LRSV/SCV METAR and TAF weather

Enter ICAO airport designator
Station Type Date Time Source
LRSV METAR 2020/04/03 22:00 UTC NOAA

LRSV 032200Z 31007KT CAVOK 08/M05 Q1015


Station Type Date Time Source
LRSV Decoded METAR 2020/04/03 22:00 UTC NOAA

Suceava / Salcea, Romania (LRSV) 47-39N 026-15E 351M
Apr 03, 2020 - 06:00 PM EDT / 2020.04.03 2200 UTC
Wind: from the NW (310 degrees) at 8 MPH (7 KT):0
Visibility: greater than 7 mile(s):0
Temperature: 46 F (8 C)
Dew Point: 23 F (-5 C)
Relative Humidity: 39%
Pressure (altimeter): 29.97 in. Hg (1015 hPa)
ob: LRSV 032200Z 31007KT CAVOK 08/M05 Q1015
cycle: 22

Station Type Date Time Source
LRSV TAF 2014/07/19 18:48 UTC NOAA

TAF LRSV 191800Z 1918/2024 CNL

Example: see airport list